Historyczne dane pomiarowe

Dodano dane terminowe – wersja testowa.

Dane z okresu 1951-2019

Wersja bazy: 1.34 [2019-03-16, lista zmian], aktualizacja planowana na 2019-04-15

Dane meteo z obszaru Polski uzyskane na podstawie danych udostępnionych przez Instytut Meteorologii i Gospodarki Wodnej – Państwowy Instytut Badawczy.

 

Wybierz Datę:    

       

TemperaturaWilgotnośćWiatrCiśnienieOpadyŚniegCzas trwania zjawisk
 Stacja t tx tn tng RH VA  wxwx mslp ppp RRR   cm mm wxwxwxwxwxwxwx
1994-08-14 12.8 17.4 10.1- 73.8- 5.3 10.3---- 3.8------------
1994-08-13 15.8 17.9 13.0- 88.8- 5.3 3.7---- 2.3------------
1994-08-12 18.3 22.9 14.0- 81.3- 6.7 0.0---- 3.5------------
1994-08-11 21.0 25.7 15.0- 61.0- 4.7 3.7---- 0.0------------
1994-08-10 19.7 27.4 8.8- 65.5- 2.7 2.0---- 0.0------------
1994-08-09 20.4 26.0 13.0- 63.5- 4.3 2.3---- 0.0------------
1994-08-08 19.4 26.0 11.4- 68.0- 2.0 2.3---- 0.0------------
1994-08-07 20.6 26.5 11.7- 67.0- 3.0 3.7---- 0.0------------
1994-08-06 23.4 30.0 16.5- 62.5- 4.0 3.3---- 0.0------------
1994-08-05 25.2 32.4 12.9- 56.3- 0.7 2.3---- 0.0------------
1994-08-04 20.8 29.0 10.2- 65.0- 0.7 1.3---- 0.0------------
1994-08-03 21.7 26.9 18.5- 76.3- 5.3 4.0---- 0.0------------
1994-08-02 24.8 31.8 17.4- 71.5- 1.7 5.3---- 1.8------------
1994-08-01 28.7 35.9 20.9- 53.5- 2.3 3.3---- 0.3------------
1994-07-31 28.4 36.4 18.9- 43.8- 2.7 2.3---- 0.0------------
1994-07-30 25.5 35.5 14.5- 63.0- 1.7 2.7---- 0.0------------
1994-07-29 26.8 35.8 16.5- 56.5- 2.0 1.0---- 0.0------------
1994-07-28 25.0 34.0 14.4- 65.0- 0.7 2.7---- 0.0------------
1994-07-27 25.1 32.9 16.8- 61.0- 4.0 1.3---- 0.0------------
1994-07-26 26.4 34.0 15.9- 54.5- 2.3 1.7---- 0.0------------
1994-07-25 24.9 32.4 13.4- 51.3- 0.7 2.3---- 0.0------------
1994-07-24 23.5 31.7 13.5- 57.8- 1.7 4.0---- 0.0------------
1994-07-23 23.5 30.0 12.6- 57.0- 2.0 1.3---- 0.0------------
1994-07-22 22.5 29.5 10.8- 55.5- 0.7 2.3---- 0.0------------
1994-07-21 20.4 28.5 7.6- 62.5- 0.3 2.3---- 0.0------------
1994-07-20 18.1 25.5 4.9- 61.5- 0.0 3.7---- 0.0------------
1994-07-19 18.7 23.2 9.9- 64.8- 1.3 4.7---- 0.0------------
1994-07-18 16.5 23.9 5.9- 68.0- 2.0 2.0---- 0.0------------
1994-07-17 18.0 23.0 12.1- 73.8- 2.0 2.7---- 0.0------------
1994-07-16 21.1 25.5 17.2- 69.5- 1.7 2.7---- 0.0------------
1994-07-15 24.0 32.0 16.7- 67.8- 3.0 2.3---- 0.0------------
1994-07-14 24.4 31.8 14.0- 60.0- 1.0 2.0---- 0.0------------
1994-07-13 24.1 31.0 14.4- 56.3- 1.0 3.7---- 0.0------------
1994-07-12 22.8 30.0 12.0- 57.3- 0.7 2.3---- 0.0------------
1994-07-11 20.1 27.6 8.0- 61.5- 0.0 2.7---- 0.0------------
1994-07-10 19.6 25.5 13.3- 68.8- 1.0 4.3---- 0.0------------
1994-07-09 17.4 23.0 13.0- 75.3- 2.7 5.3---- 0.0------------
1994-07-08 15.8 21.0 14.2- 87.5- 7.7 1.7---- 7.3------------
1994-07-07 17.1 24.5 4.0- 61.8- 2.3 3.0---- 0.4------------
1994-07-06 17.7 22.5 14.0- 66.3- 4.3 2.7---- 0.0------------
1994-07-05 18.6 24.1 9.6- 59.0- 4.0 4.3---- 0.0------------
1994-07-04 20.1 27.1 11.1- 59.3- 3.7 2.7---- 0.0------------
1994-07-03 20.2 26.5 10.1- 50.8- 1.7 3.3---- 0.0------------
1994-07-02 16.5 24.5 3.5- 64.3- 0.7 4.3---- 0.0------------
1994-07-01 14.5 19.9 6.9- 73.3- 4.0 4.7---- 0.0------------
1994-06-30 17.8 26.3 15.5- 73.8- 4.3 5.3---- 0.0------------
1994-06-29 24.0 32.6 15.0- 67.5- 3.3 7.0---- 2.0------------
1994-06-28 19.7 26.9 9.7- 73.5- 0.3 1.3---- 0.0------------
1994-06-27 20.0 26.4 12.8- 74.8- 5.3 2.7---- 0.0------------
1994-06-26 20.2 30.5 10.6- 58.5- 2.0 3.3---- 0.0------------
1994-06-25 15.9 24.7 0.1- 55.8- 0.3 4.0---- 0.0------------
1994-06-24 12.4 17.2 7.7- 67.3- 3.0 6.3---- 0.0------------
1994-06-23 13.5 18.1 10.3- 64.3- 4.7 9.7---- 0.0------------
1994-06-22 18.2 22.6 14.2- 76.5- 7.0 5.3---- 0.0------------
1994-06-21 15.0 21.4 3.4- 72.3- 3.7 2.3---- 2.3------------
1994-06-20 14.3 17.5 10.5- 64.8- 3.7 5.3---- 0.0------------
1994-06-19 14.4 18.0 10.6- 84.8- 7.7 5.0---- 0.2------------
1994-06-18 10.7 16.4 1.8- 78.5- 6.3 1.7---- 7.0------------
1994-06-17 10.3 14.4 5.7- 72.0- 4.7 3.7---- 0.4------------
1994-06-16 10.8 14.0 8.0- 77.5- 6.7 3.0---- 2.5------------
376.5 ms

 

Źródłem pochodzenia danych jest Instytut Meteorologii i Gospodarki Wodnej – Państwowy Instytut Badawczy. Dane Instytutu Meteorologii i Gospodarki Wodnej – Państwowego Instytutu Badawczego zostały przetworzone.

Dane źródłowe można odnaleźć na stronie https://dane.imgw.pl